Time;durP1;ratioP1;P1;durP2;ratioP2;P2;SDS_P1;SDS_P2;PMS_P1;PMS_P2;Temp;Humidity;BMP_temperature;BMP_pressure;BME280_temperature;BME280_humidity;BME280_pressure;Samples;Min_cycle;Max_cycle;Signal;HPM_P1;HPM_P2
2020/12/01 00:00:46;;;;;;;39.40;20.60;;;0.60;68.10;;;;;;5068309;28;20025;-81
2020/12/01 00:03:12;;;;;;;45.88;22.33;;;0.60;68.20;;;;;;5072404;28;20048;-80
2020/12/01 00:05:38;;;;;;;44.63;22.88;;;0.70;68.20;;;;;;5071914;28;20036;-78
2020/12/01 00:08:03;;;;;;;36.05;21.25;;;0.80;68.10;;;;;;5066671;28;20093;-80
2020/12/01 00:10:34;;;;;;;37.22;18.98;;;0.80;68.00;;;;;;5060383;28;20025;-81
2020/12/01 00:12:59;;;;;;;38.63;19.90;;;0.90;68.00;;;;;;5067335;28;20078;-80
2020/12/01 00:15:25;;;;;;;33.22;18.85;;;1.00;67.80;;;;;;5055672;28;20033;-81
2020/12/01 00:17:51;;;;;;;33.17;18.58;;;1.10;67.60;;;;;;5052985;28;20026;-79
2020/12/01 00:20:21;;;;;;;35.58;18.52;;;1.20;67.20;;;;;;5053200;28;20177;-79
2020/12/01 00:22:47;;;;;;;35.22;19.58;;;1.20;66.50;;;;;;5053187;28;20029;-80
2020/12/01 00:25:13;;;;;;;39.60;20.10;;;1.30;65.80;;;;;;5053381;28;20029;-79
2020/12/01 00:27:39;;;;;;;35.05;19.30;;;1.30;65.50;;;;;;5053010;28;20021;-79
2020/12/01 00:30:16;;;;;;;37.83;18.73;;;1.30;65.40;;;;;;5053154;28;20095;-80
2020/12/01 00:32:41;;;;;;;35.00;16.23;;;1.30;65.70;;;;;;5051615;28;20025;-79
2020/12/01 00:35:09;;;;;;;32.63;17.90;;;1.30;65.80;;;;;;5052820;28;20116;-80
2020/12/01 00:37:37;;;;;;;29.65;16.65;;;1.40;65.80;;;;;;5051623;28;20044;-80
2020/12/01 00:40:04;;;;;;;37.90;19.15;;;1.40;65.80;;;;;;5053105;28;20032;-80
2020/12/01 00:42:30;;;;;;;34.15;17.88;;;1.40;66.40;;;;;;5051539;28;20561;-80
2020/12/01 00:44:55;;;;;;;35.50;18.02;;;1.40;67.00;;;;;;5052733;28;20049;-80
2020/12/01 00:47:21;;;;;;;35.40;18.58;;;1.40;68.10;;;;;;5052858;28;20033;-80
2020/12/01 00:49:46;;;;;;;36.25;19.40;;;1.40;69.20;;;;;;5051543;28;20108;-80
2020/12/01 00:52:12;;;;;;;33.55;18.25;;;1.40;69.70;;;;;;5051522;28;20044;-80
2020/12/01 00:54:38;;;;;;;33.53;17.33;;;1.40;70.30;;;;;;5052606;28;20045;-80
2020/12/01 00:57:03;;;;;;;31.73;15.75;;;1.30;71.00;;;;;;5051589;28;20021;-79
2020/12/01 00:59:29;;;;;;;30.02;14.52;;;1.40;71.40;;;;;;5052699;28;20068;-79
2020/12/01 01:01:54;;;;;;;31.52;15.68;;;1.30;73.40;;;;;;5051041;28;20021;-79
2020/12/01 01:04:20;;;;;;;27.30;14.85;;;1.40;75.30;;;;;;5051156;28;20382;-81
2020/12/01 01:06:49;;;;;;;31.55;16.48;;;1.40;75.00;;;;;;5052650;28;20021;-79
2020/12/01 01:09:18;;;;;;;25.33;13.20;;;1.50;75.60;;;;;;5052689;28;20025;-79
2020/12/01 01:11:44;;;;;;;28.45;14.75;;;1.50;76.70;;;;;;5052736;28;20082;-80
2020/12/01 01:14:10;;;;;;;24.70;13.25;;;1.60;77.30;;;;;;5051499;28;20033;-79
2020/12/01 01:16:42;;;;;;;26.58;12.65;;;1.70;78.00;;;;;;5052532;28;20060;-80
2020/12/01 01:19:09;;;;;;;20.13;10.18;;;1.70;78.40;;;;;;5052537;28;20028;-79
2020/12/01 01:21:42;;;;;;;19.13;10.40;;;1.80;79.60;;;;;;5055105;28;20033;-81
2020/12/01 01:24:09;;;;;;;18.25;9.95;;;1.80;79.60;;;;;;5056068;28;20535;-80
2020/12/01 01:26:34;;;;;;;16.80;9.52;;;1.90;80.00;;;;;;5056044;28;20025;-80
2020/12/01 01:29:00;;;;;;;19.23;10.68;;;1.90;81.00;;;;;;5056118;28;20047;-79
2020/12/01 01:31:25;;;;;;;19.85;10.68;;;2.00;81.00;;;;;;5054748;28;20017;-80
2020/12/01 01:33:51;;;;;;;14.57;8.40;;;2.00;81.50;;;;;;5055824;28;20067;-80
2020/12/01 01:36:16;;;;;;;18.75;10.45;;;2.00;82.40;;;;;;5054732;28;20024;-81
2020/12/01 01:38:42;;;;;;;17.75;9.70;;;2.10;82.90;;;;;;5055643;28;20062;-81
2020/12/01 01:41:08;;;;;;;20.27;11.35;;;2.20;82.80;;;;;;5054522;28;20381;-80
2020/12/01 01:43:34;;;;;;;31.55;16.95;;;2.30;82.80;;;;;;5055794;28;20028;-79
2020/12/01 01:46:01;;;;;;;23.23;12.30;;;2.30;82.40;;;;;;5054610;28;20024;-80
2020/12/01 01:48:30;;;;;;;21.90;11.02;;;2.30;82.40;;;;;;5054468;28;20028;-80
2020/12/01 01:51:14;;;;;;;22.42;11.38;;;2.30;82.80;;;;;;5055924;28;20047;-80
2020/12/01 01:53:46;;;;;;;19.05;10.35;;;2.30;83.10;;;;;;5054059;28;20512;-79
2020/12/01 01:56:16;;;;;;;19.75;10.07;;;2.40;83.60;;;;;;5055362;28;20091;-79
2020/12/01 01:58:42;;;;;;;21.35;10.00;;;2.40;83.80;;;;;;5054034;28;20424;-80
2020/12/01 02:01:18;;;;;;;17.67;9.13;;;2.50;84.10;;;;;;5055373;28;20078;-80
2020/12/01 02:03:45;;;;;;;;;;;2.50;84.00;;;;;;5055711;28;20029;-80
2020/12/01 02:06:26;;;;;;;17.58;9.07;;;2.60;84.30;;;;;;5055360;28;20007;-80
2020/12/01 02:09:05;;;;;;;16.23;8.32;;;2.60;84.30;;;;;;5055220;28;20035;-80
2020/12/01 02:11:34;;;;;;;14.43;8.25;;;2.70;84.40;;;;;;5053943;28;20049;-80
2020/12/01 02:14:08;;;;;;;15.70;7.72;;;2.70;84.60;;;;;;5055125;28;20033;-79
2020/12/01 02:16:37;;;;;;;11.43;4.97;;;2.80;84.60;;;;;;5054993;28;20024;-80
2020/12/01 02:19:06;;;;;;;11.65;5.93;;;2.90;85.20;;;;;;5053899;28;20075;-79
2020/12/01 02:21:42;;;;;;;12.52;6.03;;;3.10;85.00;;;;;;5054893;28;20072;-80
2020/12/01 02:24:20;;;;;;;15.35;8.23;;;3.10;84.50;;;;;;5054981;28;20025;-80
2020/12/01 02:26:49;;;;;;;14.68;7.68;;;3.10;84.10;;;;;;5156427;22;20046;-79
2020/12/01 02:29:19;;;;;;;15.30;7.78;;;3.10;84.20;;;;;;5053363;28;20064;-79
2020/12/01 02:31:45;;;;;;;9.68;6.00;;;3.10;84.10;;;;;;5053415;28;20104;-79
2020/12/01 02:34:14;;;;;;;13.27;7.95;;;3.10;84.10;;;;;;5053470;28;20471;-79
2020/12/01 02:36:40;;;;;;;12.93;7.07;;;3.10;84.20;;;;;;5053310;28;20029;-80
2020/12/01 02:39:08;;;;;;;12.80;7.32;;;3.20;84.00;;;;;;5053597;28;20029;-80
2020/12/01 02:41:34;;;;;;;14.77;8.18;;;3.20;83.70;;;;;;5053419;28;20454;-80
2020/12/01 02:44:00;;;;;;;13.07;7.32;;;3.20;83.40;;;;;;5420302;22;20138;-80
2020/12/01 02:46:34;;;;;;;13.95;7.53;;;3.20;83.40;;;;;;5052331;28;20108;-79
2020/12/01 02:48:59;;;;;;;14.65;8.05;;;3.20;83.30;;;;;;5054454;28;20021;-81
2020/12/01 02:51:25;;;;;;;13.80;8.25;;;3.20;83.30;;;;;;5053023;28;20118;-81
2020/12/01 02:53:50;;;;;;;14.80;7.30;;;3.20;83.50;;;;;;5053027;28;20436;-80
2020/12/01 02:56:16;;;;;;;12.30;6.60;;;3.20;83.70;;;;;;5053047;28;20021;-80
2020/12/01 02:58:41;;;;;;;13.43;6.35;;;3.20;83.70;;;;;;5053149;28;20032;-80
2020/12/01 03:01:07;;;;;;;12.70;6.22;;;3.20;84.00;;;;;;5052940;28;20021;-80
2020/12/01 03:03:32;;;;;;;12.38;6.97;;;3.20;84.10;;;;;;5054231;28;20056;-81
2020/12/01 03:05:58;;;;;;;13.18;7.40;;;3.20;84.10;;;;;;5052936;28;20060;-80
2020/12/01 03:08:24;;;;;;;15.52;7.20;;;3.30;84.00;;;;;;5054182;28;20025;-81
2020/12/01 03:10:49;;;;;;;13.38;7.47;;;3.30;83.90;;;;;;5052963;28;20028;-80
2020/12/01 03:13:15;;;;;;;13.90;8.13;;;3.30;83.70;;;;;;5052528;28;20057;-81
2020/12/01 03:15:42;;;;;;;14.55;7.75;;;3.30;83.70;;;;;;5054078;28;20470;-81
2020/12/01 03:18:07;;;;;;;14.32;8.07;;;3.20;84.00;;;;;;5052817;28;20021;-80
2020/12/01 03:20:33;;;;;;;14.27;7.93;;;3.30;84.40;;;;;;5053849;28;20039;-80
2020/12/01 03:22:59;;;;;;;13.27;7.45;;;3.20;84.50;;;;;;5052478;28;20083;-81
2020/12/01 03:25:25;;;;;;;17.63;9.38;;;3.20;84.70;;;;;;5052364;28;20044;-79
2020/12/01 03:27:50;;;;;;;18.15;8.77;;;3.30;84.90;;;;;;5053447;28;20469;-79
2020/12/01 03:30:16;;;;;;;16.75;8.88;;;3.30;84.70;;;;;;5051972;28;20028;-80
2020/12/01 03:32:41;;;;;;;14.93;8.32;;;3.30;84.50;;;;;;5053499;28;20037;-80
2020/12/01 03:35:07;;;;;;;16.92;9.40;;;3.30;84.80;;;;;;5053448;28;20052;-81
2020/12/01 03:37:33;;;;;;;17.35;9.18;;;3.30;84.80;;;;;;5052209;28;20060;-79
2020/12/01 03:39:58;;;;;;;18.30;10.98;;;3.30;84.80;;;;;;5053259;28;20363;-79
2020/12/01 03:42:24;;;;;;;19.90;10.68;;;3.30;84.90;;;;;;5053091;28;20024;-81
2020/12/01 03:44:49;;;;;;;19.85;10.63;;;3.20;84.90;;;;;;5052900;28;20066;-80
2020/12/01 03:47:15;;;;;;;21.50;11.35;;;3.30;85.20;;;;;;5053228;28;20031;-79
2020/12/01 03:49:40;;;;;;;23.15;11.80;;;3.30;85.00;;;;;;5053243;28;20095;-79
2020/12/01 03:52:06;;;;;;;21.33;10.77;;;3.20;85.10;;;;;;5053225;28;20480;-79
2020/12/01 03:54:31;;;;;;;20.60;12.00;;;3.30;85.10;;;;;;5053220;28;20465;-82
2020/12/01 03:56:57;;;;;;;20.17;11.45;;;3.30;84.70;;;;;;5053244;28;20511;-81
2020/12/01 03:59:23;;;;;;;20.27;11.27;;;3.20;84.30;;;;;;5051712;28;20393;-80
2020/12/01 04:01:49;;;;;;;23.65;12.38;;;3.20;84.20;;;;;;5051864;28;20024;-80
2020/12/01 04:04:15;;;;;;;20.45;11.57;;;3.10;84.30;;;;;;5051643;28;20025;-79
2020/12/01 04:06:40;;;;;;;21.15;12.25;;;3.10;84.50;;;;;;5053036;28;20036;-80
2020/12/01 04:09:06;;;;;;;20.50;11.30;;;3.10;84.80;;;;;;5052830;28;20363;-80
2020/12/01 04:11:31;;;;;;;20.42;10.93;;;3.10;85.00;;;;;;5051625;28;20017;-80
2020/12/01 04:13:57;;;;;;;19.58;11.00;;;3.10;84.90;;;;;;5052802;28;20461;-80
2020/12/01 04:16:23;;;;;;;16.27;10.43;;;3.10;84.90;;;;;;5052922;28;20402;-81
2020/12/01 04:18:48;;;;;;;19.20;10.85;;;3.00;84.50;;;;;;5053007;28;20082;-81
2020/12/01 04:21:14;;;;;;;18.33;10.68;;;2.90;84.70;;;;;;5052838;28;20029;-81
2020/12/01 04:23:39;;;;;;;16.00;9.73;;;2.80;84.90;;;;;;5051464;28;20028;-79
2020/12/01 04:26:05;;;;;;;19.42;10.10;;;2.80;84.90;;;;;;5052821;28;20477;-80
2020/12/01 04:28:30;;;;;;;15.40;8.95;;;2.80;84.90;;;;;;5051390;28;20029;-80
2020/12/01 04:30:56;;;;;;;16.73;9.93;;;2.80;84.80;;;;;;5052841;28;20017;-80
2020/12/01 04:33:21;;;;;;;16.05;9.30;;;2.80;84.80;;;;;;5052652;28;20080;-80
2020/12/01 04:38:50;;;;;;;13.50;8.85;;;2.70;84.40;;;;;;5052790;28;20511;-80
2020/12/01 04:41:15;;;;;;;13.25;8.43;;;2.70;84.90;;;;;;5052514;28;20029;-80
2020/12/01 04:43:45;;;;;;;13.50;8.43;;;2.70;84.60;;;;;;5051385;28;20017;-81
2020/12/01 04:46:14;;;;;;;13.27;8.25;;;2.70;84.70;;;;;;5052820;28;20079;-80
2020/12/01 04:48:52;;;;;;;11.88;7.78;;;2.70;85.40;;;;;;5052745;28;20025;-80
2020/12/01 04:51:39;;;;;;;12.80;7.70;;;2.80;84.60;;;;;;5052810;28;20021;-80
2020/12/01 04:54:39;;;;;;;12.38;7.47;;;2.70;84.30;;;;;;5051258;28;20036;-80
2020/12/01 04:57:30;;;;;;;12.23;8.00;;;2.80;84.00;;;;;;5056311;28;20088;-80
2020/12/01 04:59:59;;;;;;;12.68;7.82;;;2.80;83.50;;;;;;5057110;28;20029;-81
2020/12/01 05:02:43;;;;;;;12.63;7.72;;;2.90;83.20;;;;;;5055461;28;20510;-80
2020/12/01 05:05:49;;;;;;;13.25;7.72;;;2.80;83.40;;;;;;5539808;22;20060;-80
2020/12/01 05:08:29;;;;;;;13.70;8.23;;;2.90;83.10;;;;;;5055264;28;20032;-80
2020/12/01 05:11:00;;;;;;;13.52;8.52;;;3.00;82.40;;;;;;5056432;28;20504;-80
2020/12/01 05:13:31;;;;;;;13.05;8.23;;;3.00;82.20;;;;;;5056660;28;20442;-80
2020/12/01 05:16:07;;;;;;;12.55;8.13;;;3.00;81.80;;;;;;5057123;28;20055;-79
2020/12/01 05:18:35;;;;;;;12.25;7.63;;;3.00;81.80;;;;;;5056616;28;20025;-80
2020/12/01 05:21:03;;;;;;;13.93;8.70;;;2.90;82.00;;;;;;5062435;28;20005;-79
2020/12/01 05:23:48;;;;;;;12.60;7.95;;;2.90;81.90;;;;;;5062658;28;20086;-80
2020/12/01 05:26:17;;;;;;;12.05;7.72;;;2.90;82.10;;;;;;5054593;28;20029;-80
2020/12/01 05:28:48;;;;;;;15.02;9.70;;;2.90;82.00;;;;;;5055960;28;20040;-80
2020/12/01 05:31:17;;;;;;;10.40;7.43;;;2.90;82.10;;;;;;5055891;28;20014;-80
2020/12/01 05:33:42;;;;;;;11.20;7.13;;;2.90;82.00;;;;;;5056042;28;20037;-80
2020/12/01 05:36:30;;;;;;;12.02;7.20;;;2.90;81.60;;;;;;5056040;28;20378;-80
2020/12/01 05:38:59;;;;;;;13.70;7.55;;;2.90;81.40;;;;;;5055746;28;20056;-81
2020/12/01 05:41:31;;;;;;;11.57;7.90;;;2.90;81.50;;;;;;5054459;28;20052;-79
2020/12/01 05:44:03;;;;;;;14.38;8.93;;;2.80;81.40;;;;;;5055809;28;20021;-79
2020/12/01 05:46:54;;;;;;;12.88;8.50;;;2.80;81.70;;;;;;5054260;28;20027;-79
2020/12/01 05:49:45;;;;;;;13.40;8.38;;;2.80;81.90;;;;;;5055726;28;20053;-79
2020/12/01 05:52:24;;;;;;;14.02;9.10;;;2.80;82.00;;;;;;5055766;28;20025;-81
2020/12/01 05:55:16;;;;;;;13.23;8.48;;;2.70;82.20;;;;;;5054243;28;20047;-79
2020/12/01 05:57:42;;;;;;;12.40;7.97;;;2.70;82.50;;;;;;5047265;28;20044;-81
2020/12/01 06:00:16;;;;;;;12.07;8.02;;;2.70;82.60;;;;;;5055868;28;20033;-81
2020/12/01 06:03:10;;;;;;;12.15;8.15;;;2.80;82.70;;;;;;5055659;28;20027;-81
2020/12/01 06:05:38;;;;;;;11.38;7.95;;;2.80;82.80;;;;;;5054984;28;20509;-81
2020/12/01 06:08:28;;;;;;;11.25;7.78;;;2.90;82.90;;;;;;5053882;28;20022;-80
2020/12/01 06:11:04;;;;;;;13.82;8.85;;;2.90;82.80;;;;;;5053739;28;20021;-79
2020/12/01 06:13:41;;;;;;;14.82;8.40;;;2.90;82.70;;;;;;5054785;28;20044;-79
2020/12/01 06:16:07;;;;;;;15.40;9.10;;;2.90;82.60;;;;;;5053579;28;20017;-78
2020/12/01 06:18:55;;;;;;;21.33;12.38;;;2.90;83.00;;;;;;5055029;28;20029;-78
2020/12/01 06:21:46;;;;;;;21.10;12.85;;;2.90;83.20;;;;;;5112416;22;20057;-80
2020/12/01 06:30:10;;;;;;;17.27;9.77;;;3.00;83.50;;;;;;5120766;22;20048;-81
2020/12/01 06:35:42;;;;;;;15.00;9.50;;;3.10;84.00;;;;;;5494395;22;20052;-80
2020/12/01 06:38:27;;;;;;;;;;;3.10;84.00;;;;;;5053162;28;20056;-81
2020/12/01 06:41:00;;;;;;;14.10;8.55;;;3.10;84.10;;;;;;5053274;28;19905;-82
2020/12/01 06:43:46;;;;;;;17.25;8.15;;;3.10;84.10;;;;;;5053163;28;20460;-81
2020/12/01 06:46:42;;;;;;;16.58;9.88;;;3.10;84.10;;;;;;5053326;28;20065;-84
2020/12/01 06:49:13;;;;;;;20.45;10.15;;;3.20;84.40;;;;;;5054327;28;20486;-82
2020/12/01 06:54:11;;;;;;;12.40;8.50;;;3.20;84.90;;;;;;5229872;22;20057;-82
2020/12/01 06:56:36;;;;;;;12.05;8.05;;;3.30;84.90;;;;;;5052883;28;20021;-81
2020/12/01 06:59:12;;;;;;;7.97;4.85;;;3.30;84.30;;;;;;5054291;28;20432;-80
2020/12/01 07:01:40;;;;;;;7.68;4.68;;;3.30;83.20;;;;;;5146980;22;20489;-82
2020/12/01 07:04:12;;;;;;;8.15;5.03;;;3.30;82.80;;;;;;5053421;28;20021;-83
2020/12/01 07:06:43;;;;;;;7.03;4.05;;;3.40;82.50;;;;;;5053217;28;20028;-79
2020/12/01 07:09:16;;;;;;;6.50;3.58;;;3.50;82.20;;;;;;5055141;28;20075;-80
2020/12/01 07:12:00;;;;;;;5.32;3.40;;;3.50;81.80;;;;;;5069901;22;20053;-81
2020/12/01 07:17:38;;;;;;;5.57;3.80;;;3.40;80.90;;;;;;5546487;22;20517;-81
2020/12/01 07:20:13;;;;;;;7.88;3.65;;;3.40;81.50;;;;;;5044082;28;20041;-79
2020/12/01 07:22:56;;;;;;;5.85;3.78;;;3.40;80.90;;;;;;5071473;28;20029;-80
2020/12/01 07:25:21;;;;;;;8.48;4.43;;;3.30;81.80;;;;;;5076199;28;20017;-81
2020/12/01 07:28:04;;;;;;;9.70;5.10;;;3.30;82.00;;;;;;5072341;28;20032;-82
2020/12/01 07:30:34;;;;;;;7.65;4.35;;;3.30;81.60;;;;;;5058647;28;20441;-81
2020/12/01 07:36:15;;;;;;;8.05;4.50;;;3.30;81.60;;;;;;5281479;22;20091;-80
2020/12/01 07:38:47;;;;;;;6.63;3.03;;;3.30;81.80;;;;;;5052965;28;20025;-81
2020/12/01 07:41:23;;;;;;;5.88;3.20;;;3.20;82.00;;;;;;5053498;28;20044;-80
2020/12/01 07:44:08;;;;;;;4.88;3.10;;;3.20;82.40;;;;;;5052309;28;20029;-80
2020/12/01 07:52:39;;;;;;;4.82;3.03;;;2.90;83.70;;;;;;5291347;22;20090;-84
2020/12/01 07:55:19;;;;;;;6.50;4.10;;;2.90;84.00;;;;;;5052771;28;20040;-79
2020/12/01 07:57:55;;;;;;;5.78;3.58;;;3.00;84.10;;;;;;5052045;28;20170;-79
2020/12/01 08:00:20;;;;;;;5.13;3.58;;;3.00;84.30;;;;;;5051754;28;20529;-78
2020/12/01 08:02:47;;;;;;;11.13;3.80;;;3.00;84.90;;;;;;5051704;28;20120;-76
2020/12/01 08:05:13;;;;;;;9.48;3.47;;;3.00;85.10;;;;;;5051294;28;20021;-77
2020/12/01 08:07:39;;;;;;;4.53;3.22;;;3.50;88.40;;;;;;5051532;28;20048;-75
2020/12/01 08:10:28;;;;;;;6.90;3.53;;;3.80;87.60;;;;;;5051609;28;20497;-76
2020/12/01 08:13:25;;;;;;;8.98;4.50;;;4.00;85.30;;;;;;5059261;22;20143;-80
2020/12/01 08:19:14;;;;;;;12.13;4.97;;;5.00;79.90;;;;;;5059961;22;20102;-78
2020/12/01 08:21:44;;;;;;;7.35;4.43;;;5.70;76.80;;;;;;5051589;28;20424;-77
2020/12/01 08:24:18;;;;;;;6.78;4.22;;;5.80;74.70;;;;;;5053254;28;20029;-84
2020/12/01 08:30:11;;;;;;;9.88;5.68;;;5.30;72.60;;;;;;5057446;28;20126;-88
2020/12/01 08:32:41;;;;;;;5.60;3.55;;;5.00;73.60;;;;;;5058556;28;20032;-88
2020/12/01 08:35:20;;;;;;;6.50;3.25;;;4.60;73.90;;;;;;5060135;28;20060;-88
2020/12/01 08:38:19;;;;;;;5.78;3.35;;;4.30;75.60;;;;;;5059493;28;20029;-89
2020/12/01 08:41:00;;;;;;;5.70;2.40;;;4.10;76.70;;;;;;5060378;28;20079;-87
2020/12/01 08:43:30;;;;;;;7.10;2.60;;;4.00;77.10;;;;;;5061040;28;20029;-89
2020/12/01 08:46:04;;;;;;;4.78;2.70;;;3.60;78.40;;;;;;5065229;28;20464;-88
2020/12/01 08:48:42;;;;;;;4.40;2.72;;;3.40;79.60;;;;;;5057950;28;20028;-86
2020/12/01 08:51:24;;;;;;;5.93;3.13;;;3.40;80.20;;;;;;5057765;28;20024;-86
2020/12/01 08:54:14;;;;;;;6.60;3.25;;;3.30;80.80;;;;;;5057480;28;20064;-88
2020/12/01 08:56:48;;;;;;;5.07;3.08;;;3.30;80.80;;;;;;5058948;28;20021;-89
2020/12/01 09:02:19;;;;;;;5.28;3.25;;;3.30;80.50;;;;;;5197194;22;20510;-88
2020/12/01 09:10:27;;;;;;;6.75;2.60;;;3.30;80.40;;;;;;5187809;22;20056;-85
2020/12/01 09:13:10;;;;;;;4.22;2.42;;;3.30;80.50;;;;;;5056554;28;20032;-87
2020/12/01 09:16:00;;;;;;;4.75;2.38;;;3.40;80.20;;;;;;5056893;28;20059;-87
2020/12/01 09:21:53;;;;;;;3.92;2.33;;;3.40;79.70;;;;;;5082029;22;20068;-85
2020/12/01 09:24:24;;;;;;;2.75;2.22;;;3.30;79.80;;;;;;5057029;28;20021;-87
2020/12/01 09:27:19;;;;;;;4.20;2.35;;;3.30;79.20;;;;;;5056027;28;20025;-83
2020/12/01 09:29:50;;;;;;;3.13;2.40;;;3.40;79.40;;;;;;5056255;28;20047;-85
2020/12/01 09:32:22;;;;;;;3.85;2.95;;;3.40;79.40;;;;;;5056717;28;20025;-88
2020/12/01 09:34:49;;;;;;;5.05;2.92;;;3.40;79.20;;;;;;5057520;28;20083;-88
2020/12/01 09:37:15;;;;;;;7.65;3.05;;;3.40;79.70;;;;;;5065091;28;20041;-81
2020/12/01 09:40:02;;;;;;;6.78;3.05;;;3.40;79.90;;;;;;5066641;28;20032;-80
2020/12/01 09:45:11;;;;;;;5.40;3.20;;;3.40;79.70;;;;;;5808208;22;20029;-88
2020/12/01 09:51:00;;;;;;;4.88;3.40;;;3.50;80.10;;;;;;5133367;22;20117;-85
2020/12/01 10:09:25;;;;;;;9.70;4.80;;;3.70;79.40;;;;;;5084961;22;20048;-85
2020/12/01 10:25:53;;;;;;;6.50;4.50;;;3.90;79.10;;;;;;5077727;28;20123;-81
2020/12/01 10:36:24;;;;;;;6.22;3.65;;;3.80;79.40;;;;;;5063631;28;20114;-83
2020/12/01 10:38:51;;;;;;;5.68;3.53;;;3.70;79.80;;;;;;5057206;28;20024;-84
2020/12/01 10:41:19;;;;;;;7.75;4.30;;;3.70;79.80;;;;;;5040233;28;20167;-84
2020/12/01 10:43:47;;;;;;;5.68;4.13;;;3.50;80.30;;;;;;5040296;28;20032;-82
2020/12/01 10:46:13;;;;;;;8.90;5.13;;;3.50;80.40;;;;;;5056968;28;20025;-83
2020/12/01 10:48:44;;;;;;;7.68;4.38;;;3.40;80.70;;;;;;5075095;28;20032;-83
2020/12/01 10:51:16;;;;;;;6.30;4.03;;;3.40;81.10;;;;;;5057050;28;20025;-83
2020/12/01 10:53:44;;;;;;;7.20;4.10;;;3.40;81.60;;;;;;5056209;28;20465;-83
2020/12/01 10:56:13;;;;;;;6.05;3.88;;;3.40;81.40;;;;;;5056647;28;20112;-83
2020/12/01 10:58:42;;;;;;;6.22;3.47;;;3.40;81.40;;;;;;5057814;28;20035;-85
2020/12/01 11:01:09;;;;;;;6.38;4.10;;;3.50;81.40;;;;;;5074144;28;20056;-84
2020/12/01 11:03:36;;;;;;;6.25;4.63;;;3.50;81.00;;;;;;5056740;28;20060;-83
2020/12/01 11:06:05;;;;;;;5.05;3.33;;;3.60;80.90;;;;;;5023533;28;20074;-83
2020/12/01 11:08:35;;;;;;;4.90;3.33;;;3.70;80.80;;;;;;5056446;28;20418;-82
2020/12/01 11:11:06;;;;;;;5.15;3.40;;;3.70;80.40;;;;;;5040700;28;20035;-83
2020/12/01 11:13:35;;;;;;;6.40;3.80;;;3.70;80.00;;;;;;5040034;28;20036;-84
2020/12/01 11:16:01;;;;;;;5.47;3.38;;;3.70;80.10;;;;;;5056863;28;20029;-83
2020/12/01 11:18:26;;;;;;;5.97;4.10;;;3.70;80.30;;;;;;5039776;28;20039;-83
2020/12/01 11:24:14;;;;;;;4.38;2.85;;;3.80;79.70;;;;;;5127774;22;20099;-85
2020/12/01 11:37:06;;;;;;;4.00;2.83;;;4.00;78.50;;;;;;5238618;22;20105;-84
2020/12/01 11:39:31;;;;;;;3.38;2.55;;;4.10;78.80;;;;;;5329374;23;20065;-83
2020/12/01 11:41:57;;;;;;;5.28;3.22;;;4.10;79.40;;;;;;5055525;28;20033;-83
2020/12/01 11:44:23;;;;;;;5.22;3.08;;;4.10;78.90;;;;;;5053752;28;20048;-84
2020/12/01 11:46:49;;;;;;;5.90;3.65;;;4.10;78.40;;;;;;5054408;28;20485;-83
2020/12/01 11:51:41;;;;;;;3.05;2.25;;;4.00;78.00;;;;;;5239710;22;20203;-83
2020/12/01 12:00:43;;;;;;;2.88;1.73;;;4.00;77.70;;;;;;5081824;22;20404;-83
2020/12/01 12:03:09;;;;;;;6.13;2.88;;;3.90;78.30;;;;;;5064760;22;20115;-83
2020/12/01 12:10:47;;;;;;;5.55;3.20;;;4.30;79.50;;;;;;5116752;22;20127;-84
2020/12/01 12:13:13;;;;;;;7.43;2.05;;;4.40;78.10;;;;;;5055719;28;20024;-84
2020/12/01 12:18:15;;;;;;;2.78;2.20;;;4.50;76.90;;;;;;5311286;22;20083;-81
2020/12/01 12:23:14;;;;;;;2.13;1.50;;;4.70;76.40;;;;;;5071731;28;20051;-83
2020/12/01 12:31:42;;;;;;;5.28;3.08;;;4.80;76.10;;;;;;5242778;22;20082;-84
2020/12/01 12:34:08;;;;;;;5.57;2.20;;;4.90;75.90;;;;;;5161519;22;20053;-83
2020/12/01 12:36:34;;;;;;;2.47;1.92;;;5.00;75.40;;;;;;5052331;28;20025;-83
2020/12/01 12:38:59;;;;;;;4.57;2.22;;;5.00;74.60;;;;;;5052445;28;20021;-83
2020/12/01 12:41:25;;;;;;;3.45;2.55;;;5.00;74.30;;;;;;5052509;28;20028;-83
2020/12/01 12:46:47;;;;;;;3.60;2.47;;;4.80;74.20;;;;;;5081033;22;20052;-82
2020/12/01 12:58:02;;;;;;;6.10;3.30;;;4.80;75.10;;;;;;5434694;22;20064;-81
2020/12/01 13:00:30;;;;;;;3.05;2.63;;;4.70;75.90;;;;;;5055055;28;20024;-83
2020/12/01 13:02:59;;;;;;;3.30;2.50;;;4.70;76.10;;;;;;5054721;28;20032;-83
2020/12/01 13:05:24;;;;;;;3.53;2.60;;;4.80;76.40;;;;;;5055221;28;20024;-85
2020/12/01 13:07:50;;;;;;;2.60;2.38;;;4.80;76.60;;;;;;5080817;22;20052;-83
2020/12/01 13:10:17;;;;;;;3.28;2.25;;;4.80;76.60;;;;;;5055068;28;20135;-83
2020/12/01 13:12:43;;;;;;;2.92;2.30;;;4.80;76.70;;;;;;5073116;28;20021;-81
2020/12/01 13:15:10;;;;;;;5.78;3.30;;;4.70;76.80;;;;;;5072828;28;20031;-82
2020/12/01 13:17:36;;;;;;;3.55;2.45;;;4.60;76.90;;;;;;5361187;22;20044;-81
2020/12/01 13:20:03;;;;;;;3.50;2.30;;;4.50;77.10;;;;;;5058183;28;20025;-82
2020/12/01 13:22:29;;;;;;;3.50;2.63;;;4.50;77.00;;;;;;5058441;28;20095;-84
2020/12/01 13:24:55;;;;;;;3.55;2.38;;;4.50;77.00;;;;;;5076754;28;20021;-84
2020/12/01 13:27:20;;;;;;;2.60;1.98;;;4.40;77.50;;;;;;5059120;28;20036;-83
2020/12/01 13:29:46;;;;;;;2.42;1.77;;;4.30;77.60;;;;;;5058606;28;20171;-84
2020/12/01 13:32:12;;;;;;;4.18;2.60;;;4.30;76.70;;;;;;5058338;28;20051;-83
2020/12/01 13:34:37;;;;;;;3.25;2.33;;;4.30;76.40;;;;;;5062182;28;20365;-82
2020/12/01 13:40:23;;;;;;;5.57;3.03;;;4.20;77.70;;;;;;5240206;22;20052;-82
2020/12/01 13:45:24;;;;;;;2.33;1.88;;;4.20;76.90;;;;;;5074393;28;20048;-82
2020/12/01 13:47:49;;;;;;;4.30;2.38;;;4.20;76.70;;;;;;5058588;28;20043;-82
2020/12/01 13:50:21;;;;;;;2.40;1.95;;;4.30;76.70;;;;;;5076765;28;20024;-84
2020/12/01 13:52:47;;;;;;;2.72;2.05;;;4.20;76.40;;;;;;5058607;28;20033;-83
2020/12/01 13:55:13;;;;;;;2.40;1.98;;;4.20;76.80;;;;;;5059221;28;20039;-83
2020/12/01 13:57:40;;;;;;;3.50;2.10;;;4.20;76.90;;;;;;5061792;28;20416;-84
2020/12/01 14:03:02;;;;;;;3.55;2.38;;;4.20;76.70;;;;;;5172408;22;20079;-83
2020/12/01 14:05:28;;;;;;;2.50;2.15;;;4.20;76.50;;;;;;5067860;28;20024;-83
2020/12/01 14:07:53;;;;;;;6.70;2.50;;;4.20;77.20;;;;;;5067230;28;20111;-82
2020/12/01 14:10:23;;;;;;;3.35;2.40;;;4.20;77.80;;;;;;5063444;28;20146;-82
2020/12/01 14:12:49;;;;;;;3.97;2.83;;;4.20;77.60;;;;;;5443523;22;20058;-82
2020/12/01 14:15:16;;;;;;;4.63;3.15;;;4.10;78.00;;;;;;5058692;28;20048;-82
2020/12/01 14:21:05;;;;;;;4.07;2.40;;;4.20;77.60;;;;;;5076892;28;20054;-82
2020/12/01 14:23:31;;;;;;;5.30;3.38;;;4.20;77.40;;;;;;5058542;28;20028;-83
2020/12/01 14:25:59;;;;;;;8.40;4.53;;;4.10;77.40;;;;;;5075819;28;20040;-83
2020/12/01 14:28:25;;;;;;;5.38;3.67;;;4.10;77.60;;;;;;5056836;28;20066;-83
2020/12/01 14:30:51;;;;;;;5.82;3.65;;;4.10;77.80;;;;;;5075384;28;20062;-83
2020/12/01 14:33:18;;;;;;;7.38;4.18;;;4.10;78.00;;;;;;5075186;28;20035;-82
2020/12/01 14:35:43;;;;;;;8.35;5.03;;;4.00;78.40;;;;;;5057197;28;20040;-83
2020/12/01 14:38:10;;;;;;;7.97;4.63;;;4.00;78.80;;;;;;5057754;28;20032;-83
2020/12/01 14:40:36;;;;;;;7.75;4.80;;;4.00;79.20;;;;;;5057635;28;20439;-83
2020/12/01 14:43:05;;;;;;;8.52;5.15;;;4.00;79.50;;;;;;5057257;28;20111;-83
2020/12/01 14:45:31;;;;;;;6.07;3.88;;;4.10;79.80;;;;;;5057507;28;20062;-83
2020/12/01 14:48:28;;;;;;;4.95;3.72;;;4.10;79.80;;;;;;5057323;28;20025;-82
2020/12/01 14:51:13;;;;;;;5.95;3.70;;;4.10;79.80;;;;;;5057238;28;20107;-83
2020/12/01 14:54:06;;;;;;;6.43;3.85;;;4.10;79.70;;;;;;5056820;28;20130;-83
2020/12/01 14:56:51;;;;;;;5.45;3.72;;;4.10;79.90;;;;;;5064439;23;20045;-83
2020/12/01 14:59:59;;;;;;;8.32;4.32;;;4.00;80.00;;;;;;5056741;28;20024;-82
2020/12/01 15:02:44;;;;;;;5.13;3.78;;;4.00;80.10;;;;;;5043315;28;20025;-83
2020/12/01 15:05:36;;;;;;;8.27;4.43;;;4.00;80.40;;;;;;5056398;28;20032;-81
2020/12/01 15:08:49;;;;;;;8.75;4.90;;;4.00;80.40;;;;;;5056511;28;20106;-84
2020/12/01 15:11:41;;;;;;;8.27;5.10;;;3.90;81.50;;;;;;5033740;28;20090;-82
2020/12/01 15:14:07;;;;;;;6.85;5.07;;;4.00;80.60;;;;;;5074442;28;20086;-83
2020/12/01 15:16:33;;;;;;;9.02;6.35;;;4.00;80.90;;;;;;5056837;28;20678;-83
2020/12/01 15:18:59;;;;;;;10.00;6.45;;;4.00;80.80;;;;;;5056326;28;20027;-84
2020/12/01 15:21:39;;;;;;;10.98;5.82;;;3.90;81.10;;;;;;5056641;28;20027;-83
2020/12/01 15:24:12;;;;;;;8.43;5.43;;;3.90;81.20;;;;;;5056394;28;20481;-83
2020/12/01 15:26:38;;;;;;;6.78;4.32;;;3.90;81.10;;;;;;5040829;28;20477;-83
2020/12/01 15:29:03;;;;;;;5.90;3.88;;;4.00;81.60;;;;;;5056484;28;20036;-83
2020/12/01 15:31:30;;;;;;;7.15;4.70;;;4.00;80.30;;;;;;5056993;28;20028;-83
2020/12/01 15:33:56;;;;;;;7.07;3.95;;;3.90;79.90;;;;;;5056404;28;20036;-83
2020/12/01 15:36:29;;;;;;;5.88;4.32;;;3.90;80.00;;;;;;5056373;28;20025;-83
2020/12/01 15:38:56;;;;;;;7.35;5.32;;;3.90;80.00;;;;;;5055871;28;20464;-83
2020/12/01 15:41:23;;;;;;;8.88;4.93;;;3.90;79.80;;;;;;5056186;28;20083;-83